Página principal
METAR-TAF:

METAR-TAF

Aeroportos :

Aktau, Cazaquistão

latitude: 43-52-12N, longitude: 051-06E, altura: 22 m

Observação actual do tempo

O boletim foi feito há 20 minutos, às 02:00 UTC
Vento 12 kt de nordeste
Temperatura 1°C
Humidade 86%
Pressão 1020 hPa
Visibilidade 10 km ou mais
Nuvens fragmentadasa uma altura de 4600 ft

METAR: UATE 190200Z 04006MPS 9999 BKN046 01/M01 Q1020 R30/0///70 NOSIG RMK QFE763/1018

Hora: 07:20 (02:20 UTC)

Previsão

O boletim foi feito há 1 hora e 14 minutos, às 01:06 UTC
Previsão válida de 19 às 01 UTC a 19 às 24 UTC
Vento 16 kt de nordeste com rajadas de 27 kt
Visibilidade 10 km ou mais
Nuvens fragmentadasa uma altura de 2000 ft
Nuvens dispersasa uma altura de 3300 ft, Cumulonimbus.

TAF: UATE 190106Z 1901/1924 05008G14MPS 9999 BKN020 SCT033CB TX07/1910Z TN03/1902Z

Observações e previsões do tempo de mais de 4000 aeroportos (mensagens METAR e TAF).

As estações disponíveis são os pontos amarelos e vermelhos sobre o mapa.

Mova o rato sobre o mapa para ver o nome da estação.

Depois clique no ponto para visualizar as observações e previsões meteorológicas.

Para alterar o mapa : clique nos botões verdes com uma cruz preta para aumentar o zoom; no botão verde com uma pitada de zoom; ou nas setas verdes para mapas adjacentes.


METAR-TAF: